sensor_id;sensor_type;location;lat;lon;timestamp;temperature;humidity
11736;DHT22;5924;51.398;7.088;2023-04-24T00:00:34;10.50;99.90
11736;DHT22;5924;51.398;7.088;2023-04-24T00:03:01;10.50;99.90
11736;DHT22;5924;51.398;7.088;2023-04-24T00:05:28;12.50;99.90
11736;DHT22;5924;51.398;7.088;2023-04-24T00:07:54;10.40;99.90
11736;DHT22;5924;51.398;7.088;2023-04-24T00:10:20;10.30;99.90
11736;DHT22;5924;51.398;7.088;2023-04-24T00:12:46;10.30;99.90
11736;DHT22;5924;51.398;7.088;2023-04-24T00:15:12;10.10;99.90
11736;DHT22;5924;51.398;7.088;2023-04-24T00:17:38;10.00;99.90
11736;DHT22;5924;51.398;7.088;2023-04-24T00:20:04;9.90;99.90
11736;DHT22;5924;51.398;7.088;2023-04-24T00:22:32;9.80;99.90
11736;DHT22;5924;51.398;7.088;2023-04-24T00:24:58;9.70;99.90
11736;DHT22;5924;51.398;7.088;2023-04-24T00:27:24;9.70;99.90
11736;DHT22;5924;51.398;7.088;2023-04-24T00:29:49;9.70;99.90
11736;DHT22;5924;51.398;7.088;2023-04-24T00:32:15;9.60;99.90
11736;DHT22;5924;51.398;7.088;2023-04-24T00:34:41;9.50;99.90
11736;DHT22;5924;51.398;7.088;2023-04-24T00:37:07;9.50;99.90
11736;DHT22;5924;51.398;7.088;2023-04-24T00:39:33;9.40;99.90
11736;DHT22;5924;51.398;7.088;2023-04-24T00:41:58;9.30;99.90
11736;DHT22;5924;51.398;7.088;2023-04-24T00:44:25;9.30;99.90
11736;DHT22;5924;51.398;7.088;2023-04-24T00:46:51;9.30;99.90
11736;DHT22;5924;51.398;7.088;2023-04-24T00:49:21;9.20;99.90
11736;DHT22;5924;51.398;7.088;2023-04-24T00:51:47;9.20;99.90
11736;DHT22;5924;51.398;7.088;2023-04-24T00:54:14;9.10;99.90
11736;DHT22;5924;51.398;7.088;2023-04-24T00:56:41;9.00;99.90
11736;DHT22;5924;51.398;7.088;2023-04-24T00:59:08;8.90;99.90
11736;DHT22;5924;51.398;7.088;2023-04-24T01:01:33;8.90;99.90
11736;DHT22;5924;51.398;7.088;2023-04-24T01:03:59;8.90;99.90
11736;DHT22;5924;51.398;7.088;2023-04-24T01:06:28;8.90;99.90
11736;DHT22;5924;51.398;7.088;2023-04-24T01:08:54;8.80;99.90
11736;DHT22;5924;51.398;7.088;2023-04-24T01:11:21;8.80;99.90
11736;DHT22;5924;51.398;7.088;2023-04-24T01:13:47;8.70;99.90
11736;DHT22;5924;51.398;7.088;2023-04-24T01:16:14;8.80;99.90
11736;DHT22;5924;51.398;7.088;2023-04-24T01:18:40;8.90;99.90
11736;DHT22;5924;51.398;7.088;2023-04-24T01:21:08;9.00;99.90
11736;DHT22;5924;51.398;7.088;2023-04-24T01:23:34;9.20;99.90
11736;DHT22;5924;51.398;7.088;2023-04-24T01:26:01;9.20;99.90
11736;DHT22;5924;51.398;7.088;2023-04-24T01:28:26;9.30;99.90
11736;DHT22;5924;51.398;7.088;2023-04-24T01:30:52;9.30;99.90
11736;DHT22;5924;51.398;7.088;2023-04-24T01:33:21;9.30;99.90
11736;DHT22;5924;51.398;7.088;2023-04-24T01:35:48;9.40;99.90
11736;DHT22;5924;51.398;7.088;2023-04-24T01:38:13;9.30;99.90
11736;DHT22;5924;51.398;7.088;2023-04-24T01:40:39;9.20;99.90
11736;DHT22;5924;51.398;7.088;2023-04-24T01:43:05;9.20;99.90
11736;DHT22;5924;51.398;7.088;2023-04-24T01:45:31;9.10;99.90
11736;DHT22;5924;51.398;7.088;2023-04-24T01:47:57;9.10;99.90
11736;DHT22;5924;51.398;7.088;2023-04-24T01:50:23;9.00;99.90
11736;DHT22;5924;51.398;7.088;2023-04-24T01:52:49;8.90;99.90
11736;DHT22;5924;51.398;7.088;2023-04-24T01:55:15;8.90;99.90
11736;DHT22;5924;51.398;7.088;2023-04-24T01:57:40;8.70;99.90
11736;DHT22;5924;51.398;7.088;2023-04-24T02:00:07;8.70;99.90
11736;DHT22;5924;51.398;7.088;2023-04-24T02:02:33;8.60;99.90
11736;DHT22;5924;51.398;7.088;2023-04-24T02:04:59;8.50;99.90
11736;DHT22;5924;51.398;7.088;2023-04-24T02:07:25;8.50;99.90
11736;DHT22;5924;51.398;7.088;2023-04-24T02:09:50;8.40;99.90
11736;DHT22;5924;51.398;7.088;2023-04-24T02:12:16;8.30;99.90
11736;DHT22;5924;51.398;7.088;2023-04-24T02:14:43;8.20;99.90
11736;DHT22;5924;51.398;7.088;2023-04-24T02:17:09;8.10;99.90
11736;DHT22;5924;51.398;7.088;2023-04-24T02:19:35;8.10;99.90
11736;DHT22;5924;51.398;7.088;2023-04-24T02:22:00;8.10;99.90
11736;DHT22;5924;51.398;7.088;2023-04-24T02:24:26;8.20;99.90
11736;DHT22;5924;51.398;7.088;2023-04-24T02:26:52;8.20;99.90
11736;DHT22;5924;51.398;7.088;2023-04-24T02:29:17;8.30;99.90
11736;DHT22;5924;51.398;7.088;2023-04-24T02:31:43;8.30;99.90
11736;DHT22;5924;51.398;7.088;2023-04-24T02:34:09;8.30;99.90
11736;DHT22;5924;51.398;7.088;2023-04-24T02:36:34;8.40;99.90
11736;DHT22;5924;51.398;7.088;2023-04-24T02:39:00;8.40;99.90
11736;DHT22;5924;51.398;7.088;2023-04-24T02:41:26;8.50;99.90
11736;DHT22;5924;51.398;7.088;2023-04-24T02:43:57;8.50;99.90
11736;DHT22;5924;51.398;7.088;2023-04-24T02:46:23;8.40;99.90
11736;DHT22;5924;51.398;7.088;2023-04-24T02:48:49;8.40;99.90
11736;DHT22;5924;51.398;7.088;2023-04-24T02:51:14;8.40;99.90
11736;DHT22;5924;51.398;7.088;2023-04-24T02:53:40;8.40;99.90
11736;DHT22;5924;51.398;7.088;2023-04-24T02:56:06;8.50;99.90
11736;DHT22;5924;51.398;7.088;2023-04-24T02:58:31;8.60;99.90
11736;DHT22;5924;51.398;7.088;2023-04-24T03:00:57;8.60;99.90
11736;DHT22;5924;51.398;7.088;2023-04-24T03:03:23;8.60;99.90
11736;DHT22;5924;51.398;7.088;2023-04-24T03:05:49;8.70;99.90
11736;DHT22;5924;51.398;7.088;2023-04-24T03:08:15;8.70;99.90
11736;DHT22;5924;51.398;7.088;2023-04-24T03:10:41;8.70;99.90
11736;DHT22;5924;51.398;7.088;2023-04-24T03:13:07;8.70;99.90
11736;DHT22;5924;51.398;7.088;2023-04-24T03:15:32;8.70;99.90
11736;DHT22;5924;51.398;7.088;2023-04-24T03:17:58;8.80;99.90
11736;DHT22;5924;51.398;7.088;2023-04-24T03:20:24;8.80;99.90
11736;DHT22;5924;51.398;7.088;2023-04-24T03:22:49;8.80;99.90
11736;DHT22;5924;51.398;7.088;2023-04-24T03:25:15;8.80;99.90
11736;DHT22;5924;51.398;7.088;2023-04-24T03:27:41;8.80;99.90
11736;DHT22;5924;51.398;7.088;2023-04-24T03:30:07;8.80;99.90
11736;DHT22;5924;51.398;7.088;2023-04-24T03:32:33;8.80;99.90
11736;DHT22;5924;51.398;7.088;2023-04-24T03:34:59;8.80;99.90
11736;DHT22;5924;51.398;7.088;2023-04-24T03:37:24;8.80;99.90
11736;DHT22;5924;51.398;7.088;2023-04-24T03:39:51;8.80;99.90
11736;DHT22;5924;51.398;7.088;2023-04-24T03:42:17;8.80;99.90
11736;DHT22;5924;51.398;7.088;2023-04-24T03:44:43;8.80;99.90
11736;DHT22;5924;51.398;7.088;2023-04-24T03:47:08;8.80;99.90
11736;DHT22;5924;51.398;7.088;2023-04-24T03:49:34;8.90;99.90
11736;DHT22;5924;51.398;7.088;2023-04-24T03:52:00;8.90;99.90
11736;DHT22;5924;51.398;7.088;2023-04-24T03:54:25;8.90;99.90
11736;DHT22;5924;51.398;7.088;2023-04-24T03:56:51;8.90;99.90
11736;DHT22;5924;51.398;7.088;2023-04-24T03:59:17;8.90;99.90
11736;DHT22;5924;51.398;7.088;2023-04-24T04:01:42;8.90;99.90
11736;DHT22;5924;51.398;7.088;2023-04-24T04:04:08;8.90;99.90
11736;DHT22;5924;51.398;7.088;2023-04-24T04:06:34;7.10;99.90
11736;DHT22;5924;51.398;7.088;2023-04-24T04:09:00;8.90;99.90
11736;DHT22;5924;51.398;7.088;2023-04-24T04:11:26;8.90;99.90
11736;DHT22;5924;51.398;7.088;2023-04-24T04:13:52;8.80;99.90
11736;DHT22;5924;51.398;7.088;2023-04-24T04:16:17;8.80;99.90
11736;DHT22;5924;51.398;7.088;2023-04-24T04:18:43;8.80;99.90
11736;DHT22;5924;51.398;7.088;2023-04-24T04:21:09;8.80;99.90
11736;DHT22;5924;51.398;7.088;2023-04-24T04:23:35;8.90;99.90
11736;DHT22;5924;51.398;7.088;2023-04-24T04:26:01;8.90;99.90
11736;DHT22;5924;51.398;7.088;2023-04-24T04:28:27;8.90;99.90
11736;DHT22;5924;51.398;7.088;2023-04-24T04:30:53;8.90;99.90
11736;DHT22;5924;51.398;7.088;2023-04-24T04:33:23;8.90;99.90
11736;DHT22;5924;51.398;7.088;2023-04-24T04:35:49;8.90;99.90
11736;DHT22;5924;51.398;7.088;2023-04-24T04:38:15;8.90;99.90
11736;DHT22;5924;51.398;7.088;2023-04-24T04:40:42;8.90;99.90
11736;DHT22;5924;51.398;7.088;2023-04-24T04:43:08;8.90;99.90
11736;DHT22;5924;51.398;7.088;2023-04-24T04:45:35;8.90;99.90
11736;DHT22;5924;51.398;7.088;2023-04-24T04:48:01;8.90;99.90
11736;DHT22;5924;51.398;7.088;2023-04-24T04:50:27;8.90;99.90
11736;DHT22;5924;51.398;7.088;2023-04-24T04:52:53;8.90;99.90
11736;DHT22;5924;51.398;7.088;2023-04-24T04:55:18;8.90;99.90
11736;DHT22;5924;51.398;7.088;2023-04-24T04:57:47;8.90;99.90
11736;DHT22;5924;51.398;7.088;2023-04-24T05:00:13;8.90;99.90
11736;DHT22;5924;51.398;7.088;2023-04-24T05:02:39;9.10;99.90
11736;DHT22;5924;51.398;7.088;2023-04-24T05:05:06;8.90;99.90
11736;DHT22;5924;51.398;7.088;2023-04-24T05:07:32;8.90;99.90
11736;DHT22;5924;51.398;7.088;2023-04-24T05:09:58;8.90;99.90
11736;DHT22;5924;51.398;7.088;2023-04-24T05:12:23;8.90;99.90
11736;DHT22;5924;51.398;7.088;2023-04-24T05:14:49;8.90;99.90
11736;DHT22;5924;51.398;7.088;2023-04-24T05:17:15;8.90;99.90
11736;DHT22;5924;51.398;7.088;2023-04-24T05:19:42;8.90;99.90
11736;DHT22;5924;51.398;7.088;2023-04-24T05:22:07;8.90;99.90
11736;DHT22;5924;51.398;7.088;2023-04-24T05:24:35;8.80;99.90
11736;DHT22;5924;51.398;7.088;2023-04-24T05:27:01;8.80;99.90
11736;DHT22;5924;51.398;7.088;2023-04-24T05:29:28;8.80;99.90
11736;DHT22;5924;51.398;7.088;2023-04-24T05:31:56;8.80;99.90
11736;DHT22;5924;51.398;7.088;2023-04-24T05:34:21;8.70;99.90
11736;DHT22;5924;51.398;7.088;2023-04-24T05:36:47;8.60;99.90
11736;DHT22;5924;51.398;7.088;2023-04-24T05:39:13;8.50;99.90
11736;DHT22;5924;51.398;7.088;2023-04-24T05:41:39;8.50;99.90
11736;DHT22;5924;51.398;7.088;2023-04-24T05:44:05;8.40;99.90
11736;DHT22;5924;51.398;7.088;2023-04-24T05:46:30;8.40;99.90
11736;DHT22;5924;51.398;7.088;2023-04-24T05:48:56;8.40;99.90
11736;DHT22;5924;51.398;7.088;2023-04-24T05:51:22;8.40;99.90
11736;DHT22;5924;51.398;7.088;2023-04-24T05:53:47;8.40;99.90
11736;DHT22;5924;51.398;7.088;2023-04-24T05:56:13;8.40;99.90
11736;DHT22;5924;51.398;7.088;2023-04-24T05:58:39;8.40;99.90
11736;DHT22;5924;51.398;7.088;2023-04-24T06:01:05;8.40;99.90
11736;DHT22;5924;51.398;7.088;2023-04-24T06:03:31;8.40;99.90
11736;DHT22;5924;51.398;7.088;2023-04-24T06:05:56;8.50;99.90
11736;DHT22;5924;51.398;7.088;2023-04-24T06:08:22;8.50;99.90
11736;DHT22;5924;51.398;7.088;2023-04-24T06:10:48;8.50;99.90
11736;DHT22;5924;51.398;7.088;2023-04-24T06:13:13;8.40;99.90
11736;DHT22;5924;51.398;7.088;2023-04-24T06:15:39;8.40;99.90
11736;DHT22;5924;51.398;7.088;2023-04-24T06:18:06;8.40;99.90
11736;DHT22;5924;51.398;7.088;2023-04-24T06:20:32;8.50;99.90
11736;DHT22;5924;51.398;7.088;2023-04-24T06:22:57;8.50;99.90
11736;DHT22;5924;51.398;7.088;2023-04-24T06:25:25;8.60;99.90
11736;DHT22;5924;51.398;7.088;2023-04-24T06:27:52;8.60;99.90
11736;DHT22;5924;51.398;7.088;2023-04-24T06:30:17;8.70;99.90
11736;DHT22;5924;51.398;7.088;2023-04-24T06:32:43;8.70;99.90
11736;DHT22;5924;51.398;7.088;2023-04-24T06:35:09;8.70;99.90
11736;DHT22;5924;51.398;7.088;2023-04-24T06:37:35;8.80;99.90
11736;DHT22;5924;51.398;7.088;2023-04-24T06:40:01;8.80;99.90
11736;DHT22;5924;51.398;7.088;2023-04-24T06:42:26;9.00;99.90
11736;DHT22;5924;51.398;7.088;2023-04-24T06:44:52;9.10;99.90
11736;DHT22;5924;51.398;7.088;2023-04-24T06:47:18;9.20;99.90
11736;DHT22;5924;51.398;7.088;2023-04-24T06:49:44;9.10;99.90
11736;DHT22;5924;51.398;7.088;2023-04-24T06:52:09;8.90;99.90
11736;DHT22;5924;51.398;7.088;2023-04-24T06:54:35;8.70;99.90
11736;DHT22;5924;51.398;7.088;2023-04-24T06:57:01;8.70;99.90
11736;DHT22;5924;51.398;7.088;2023-04-24T06:59:28;8.70;99.90
11736;DHT22;5924;51.398;7.088;2023-04-24T07:01:55;10.90;99.90
11736;DHT22;5924;51.398;7.088;2023-04-24T07:04:21;7.30;99.90
11736;DHT22;5924;51.398;7.088;2023-04-24T07:06:47;8.70;99.90
11736;DHT22;5924;51.398;7.088;2023-04-24T07:09:13;8.60;99.90
11736;DHT22;5924;51.398;7.088;2023-04-24T07:11:59;8.50;99.90
11736;DHT22;5924;51.398;7.088;2023-04-24T07:15:24;8.40;99.90
11736;DHT22;5924;51.398;7.088;2023-04-24T07:22:41;8.40;99.90
11736;DHT22;5924;51.398;7.088;2023-04-24T07:26:12;8.40;99.90
11736;DHT22;5924;51.398;7.088;2023-04-24T07:29:44;8.40;99.90
11736;DHT22;5924;51.398;7.088;2023-04-24T07:33:17;8.30;99.90
11736;DHT22;5924;51.398;7.088;2023-04-24T07:36:53;8.30;99.90
11736;DHT22;5924;51.398;7.088;2023-04-24T07:40:25;8.50;99.90
11736;DHT22;5924;51.398;7.088;2023-04-24T07:43:33;8.70;99.90
11736;DHT22;5924;51.398;7.088;2023-04-24T07:46:38;8.70;99.90
11736;DHT22;5924;51.398;7.088;2023-04-24T07:49:04;8.60;99.90
11736;DHT22;5924;51.398;7.088;2023-04-24T07:51:31;8.50;99.90
11736;DHT22;5924;51.398;7.088;2023-04-24T07:53:57;8.30;99.90
11736;DHT22;5924;51.398;7.088;2023-04-24T07:56:23;8.00;99.90
11736;DHT22;5924;51.398;7.088;2023-04-24T07:58:49;7.80;99.90
11736;DHT22;5924;51.398;7.088;2023-04-24T08:01:14;7.90;99.90
11736;DHT22;5924;51.398;7.088;2023-04-24T08:03:40;8.00;99.90
11736;DHT22;5924;51.398;7.088;2023-04-24T08:06:06;8.00;99.90
11736;DHT22;5924;51.398;7.088;2023-04-24T08:08:32;8.20;99.90
11736;DHT22;5924;51.398;7.088;2023-04-24T08:10:58;8.20;99.90
11736;DHT22;5924;51.398;7.088;2023-04-24T08:13:23;8.30;99.90
11736;DHT22;5924;51.398;7.088;2023-04-24T08:15:49;8.30;99.90
11736;DHT22;5924;51.398;7.088;2023-04-24T08:18:15;8.20;99.90
11736;DHT22;5924;51.398;7.088;2023-04-24T08:20:41;8.10;99.90
11736;DHT22;5924;51.398;7.088;2023-04-24T08:23:07;8.00;99.90
11736;DHT22;5924;51.398;7.088;2023-04-24T08:25:33;7.80;99.90
11736;DHT22;5924;51.398;7.088;2023-04-24T09:43:16;7.60;99.90
11736;DHT22;5924;51.398;7.088;2023-04-24T10:47:16;7.90;99.90
11736;DHT22;5924;51.398;7.088;2023-04-24T11:01:03;7.60;99.90
11736;DHT22;5924;51.398;7.088;2023-04-24T11:27:44;8.60;99.90
11736;DHT22;5924;51.398;7.088;2023-04-24T11:34:40;8.90;99.90
11736;DHT22;5924;51.398;7.088;2023-04-24T11:40:53;8.60;99.90
11736;DHT22;5924;51.398;7.088;2023-04-24T11:43:56;8.40;99.90
11736;DHT22;5924;51.398;7.088;2023-04-24T11:46:46;10.10;99.90
11736;DHT22;5924;51.398;7.088;2023-04-24T11:49:55;8.20;99.90
11736;DHT22;5924;51.398;7.088;2023-04-24T11:53:26;8.30;99.90
11736;DHT22;5924;51.398;7.088;2023-04-24T12:00:03;8.40;99.90
11736;DHT22;5924;51.398;7.088;2023-04-24T12:03:16;8.40;99.90
11736;DHT22;5924;51.398;7.088;2023-04-24T12:09:18;8.60;99.90
11736;DHT22;5924;51.398;7.088;2023-04-24T12:12:07;8.80;99.90
11736;DHT22;5924;51.398;7.088;2023-04-24T12:15:26;9.00;99.90
11736;DHT22;5924;51.398;7.088;2023-04-24T12:18:17;9.70;99.90
11736;DHT22;5924;51.398;7.088;2023-04-24T12:21:14;10.50;99.90
11736;DHT22;5924;51.398;7.088;2023-04-24T12:24:25;10.30;99.90
11736;DHT22;5924;51.398;7.088;2023-04-24T12:27:01;10.00;99.90
11736;DHT22;5924;51.398;7.088;2023-04-24T12:29:57;9.60;99.90
11736;DHT22;5924;51.398;7.088;2023-04-24T12:33:23;9.30;99.90
11736;DHT22;5924;51.398;7.088;2023-04-24T12:40:09;9.00;99.90
11736;DHT22;5924;51.398;7.088;2023-04-24T12:43:02;8.90;99.90
11736;DHT22;5924;51.398;7.088;2023-04-24T12:46:34;8.90;99.90
11736;DHT22;5924;51.398;7.088;2023-04-24T12:50:16;9.00;99.90
11736;DHT22;5924;51.398;7.088;2023-04-24T12:56:40;9.30;99.90
11736;DHT22;5924;51.398;7.088;2023-04-24T13:00:12;9.50;99.90
11736;DHT22;5924;51.398;7.088;2023-04-24T13:03:11;9.60;99.90
11736;DHT22;5924;51.398;7.088;2023-04-24T13:06:52;10.80;99.90
11736;DHT22;5924;51.398;7.088;2023-04-24T13:09:29;9.60;99.90
11736;DHT22;5924;51.398;7.088;2023-04-24T13:12:43;9.80;99.90
11736;DHT22;5924;51.398;7.088;2023-04-24T13:15:53;10.00;99.90
11736;DHT22;5924;51.398;7.088;2023-04-24T13:19:05;10.10;99.90
11736;DHT22;5924;51.398;7.088;2023-04-24T13:22:10;10.20;99.90
11736;DHT22;5924;51.398;7.088;2023-04-24T13:25:23;10.20;99.90
11736;DHT22;5924;51.398;7.088;2023-04-24T13:31:20;9.60;99.90
11736;DHT22;5924;51.398;7.088;2023-04-24T13:34:05;11.40;99.90
11736;DHT22;5924;51.398;7.088;2023-04-24T13:37:08;9.20;99.90
11736;DHT22;5924;51.398;7.088;2023-04-24T13:43:27;9.20;99.90
11736;DHT22;5924;51.398;7.088;2023-04-24T13:49:38;9.30;99.90
11736;DHT22;5924;51.398;7.088;2023-04-24T13:52:58;9.50;99.90
11736;DHT22;5924;51.398;7.088;2023-04-24T15:11:16;9.50;99.90
11736;DHT22;5924;51.398;7.088;2023-04-24T15:42:01;12.80;99.90
11736;DHT22;5924;51.398;7.088;2023-04-24T15:44:55;12.90;99.90
11736;DHT22;5924;51.398;7.088;2023-04-24T15:47:45;12.50;99.90
11736;DHT22;5924;51.398;7.088;2023-04-24T15:50:14;14.70;99.90
11736;DHT22;5924;51.398;7.088;2023-04-24T15:52:44;13.80;99.90
11736;DHT22;5924;51.398;7.088;2023-04-24T15:55:10;15.80;99.90
11736;DHT22;5924;51.398;7.088;2023-04-24T15:57:36;16.20;99.90
11736;DHT22;5924;51.398;7.088;2023-04-24T16:00:03;15.10;99.90
11736;DHT22;5924;51.398;7.088;2023-04-24T16:02:31;13.20;99.90
11736;DHT22;5924;51.398;7.088;2023-04-24T16:04:57;13.40;99.90
11736;DHT22;5924;51.398;7.088;2023-04-24T16:07:23;13.00;99.90
11736;DHT22;5924;51.398;7.088;2023-04-24T16:09:48;13.10;99.90
11736;DHT22;5924;51.398;7.088;2023-04-24T16:12:14;13.30;99.90
11736;DHT22;5924;51.398;7.088;2023-04-24T16:14:40;13.20;99.90
11736;DHT22;5924;51.398;7.088;2023-04-24T16:17:06;12.60;99.90
11736;DHT22;5924;51.398;7.088;2023-04-24T16:19:31;11.90;99.90
11736;DHT22;5924;51.398;7.088;2023-04-24T16:22:00;11.30;99.90
11736;DHT22;5924;51.398;7.088;2023-04-24T16:24:28;11.90;99.90
11736;DHT22;5924;51.398;7.088;2023-04-24T16:26:54;13.50;99.90
11736;DHT22;5924;51.398;7.088;2023-04-24T16:29:21;15.40;99.90
11736;DHT22;5924;51.398;7.088;2023-04-24T16:31:46;17.10;99.90
11736;DHT22;5924;51.398;7.088;2023-04-24T16:34:12;18.50;99.90
11736;DHT22;5924;51.398;7.088;2023-04-24T16:36:38;18.80;99.90
11736;DHT22;5924;51.398;7.088;2023-04-24T16:39:03;19.00;98.80
11736;DHT22;5924;51.398;7.088;2023-04-24T16:41:32;18.40;98.60
11736;DHT22;5924;51.398;7.088;2023-04-24T16:43:58;17.10;99.60
11736;DHT22;5924;51.398;7.088;2023-04-24T16:46:25;16.30;99.80
11736;DHT22;5924;51.398;7.088;2023-04-24T16:48:50;14.90;99.90
11736;DHT22;5924;51.398;7.088;2023-04-24T16:51:16;14.30;99.90
11736;DHT22;5924;51.398;7.088;2023-04-24T16:53:42;14.80;99.90
11736;DHT22;5924;51.398;7.088;2023-04-24T16:56:08;14.30;99.90
11736;DHT22;5924;51.398;7.088;2023-04-24T16:58:33;13.70;99.90
11736;DHT22;5924;51.398;7.088;2023-04-24T17:00:59;12.90;99.90
11736;DHT22;5924;51.398;7.088;2023-04-24T17:03:25;12.10;99.90
11736;DHT22;5924;51.398;7.088;2023-04-24T17:05:51;11.50;99.90
11736;DHT22;5924;51.398;7.088;2023-04-24T17:08:16;11.20;99.90
11736;DHT22;5924;51.398;7.088;2023-04-24T17:10:42;10.80;99.90
11736;DHT22;5924;51.398;7.088;2023-04-24T17:13:08;10.50;99.90
11736;DHT22;5924;51.398;7.088;2023-04-24T17:15:34;10.30;99.90
11736;DHT22;5924;51.398;7.088;2023-04-24T17:18:01;10.10;99.90
11736;DHT22;5924;51.398;7.088;2023-04-24T17:20:27;10.00;99.90
11736;DHT22;5924;51.398;7.088;2023-04-24T17:22:52;9.90;99.90
11736;DHT22;5924;51.398;7.088;2023-04-24T17:25:19;9.80;99.90
11736;DHT22;5924;51.398;7.088;2023-04-24T17:27:45;9.80;99.90
11736;DHT22;5924;51.398;7.088;2023-04-24T17:30:11;9.70;99.90
11736;DHT22;5924;51.398;7.088;2023-04-24T17:32:37;9.60;99.90
11736;DHT22;5924;51.398;7.088;2023-04-24T17:35:05;9.50;99.90
11736;DHT22;5924;51.398;7.088;2023-04-24T17:37:31;9.50;99.90
11736;DHT22;5924;51.398;7.088;2023-04-24T17:39:57;9.50;99.90
11736;DHT22;5924;51.398;7.088;2023-04-24T17:42:22;9.40;99.90
11736;DHT22;5924;51.398;7.088;2023-04-24T17:44:48;9.30;99.90
11736;DHT22;5924;51.398;7.088;2023-04-24T17:47:14;9.30;99.90
11736;DHT22;5924;51.398;7.088;2023-04-24T17:49:39;9.30;99.90
11736;DHT22;5924;51.398;7.088;2023-04-24T17:52:06;8.30;99.90
11736;DHT22;5924;51.398;7.088;2023-04-24T17:54:31;9.30;99.90
11736;DHT22;5924;51.398;7.088;2023-04-24T17:56:57;9.40;99.90
11736;DHT22;5924;51.398;7.088;2023-04-24T17:59:23;9.40;99.90
11736;DHT22;5924;51.398;7.088;2023-04-24T18:01:49;9.50;99.90
11736;DHT22;5924;51.398;7.088;2023-04-24T18:04:15;9.60;99.90
11736;DHT22;5924;51.398;7.088;2023-04-24T18:06:42;9.80;99.90
11736;DHT22;5924;51.398;7.088;2023-04-24T18:09:08;10.00;99.90
11736;DHT22;5924;51.398;7.088;2023-04-24T18:11:34;10.00;99.90
11736;DHT22;5924;51.398;7.088;2023-04-24T18:14:00;9.90;99.90
11736;DHT22;5924;51.398;7.088;2023-04-24T18:16:25;9.70;99.90
11736;DHT22;5924;51.398;7.088;2023-04-24T18:18:51;9.50;99.90
11736;DHT22;5924;51.398;7.088;2023-04-24T18:21:18;9.20;99.90
11736;DHT22;5924;51.398;7.088;2023-04-24T18:23:44;9.00;99.90
11736;DHT22;5924;51.398;7.088;2023-04-24T18:26:10;8.80;99.90
11736;DHT22;5924;51.398;7.088;2023-04-24T18:28:41;8.70;99.90
11736;DHT22;5924;51.398;7.088;2023-04-24T18:31:07;8.60;99.90
11736;DHT22;5924;51.398;7.088;2023-04-24T18:33:33;8.50;99.90
11736;DHT22;5924;51.398;7.088;2023-04-24T18:35:59;8.50;99.90
11736;DHT22;5924;51.398;7.088;2023-04-24T18:38:25;8.40;99.90
11736;DHT22;5924;51.398;7.088;2023-04-24T18:40:51;8.40;99.90
11736;DHT22;5924;51.398;7.088;2023-04-24T18:43:16;8.40;99.90
11736;DHT22;5924;51.398;7.088;2023-04-24T18:45:42;8.30;99.90
11736;DHT22;5924;51.398;7.088;2023-04-24T18:48:07;8.30;99.90
11736;DHT22;5924;51.398;7.088;2023-04-24T18:50:33;8.10;99.90
11736;DHT22;5924;51.398;7.088;2023-04-24T18:52:59;8.10;99.90
11736;DHT22;5924;51.398;7.088;2023-04-24T18:55:24;8.00;99.90
11736;DHT22;5924;51.398;7.088;2023-04-24T18:57:50;7.90;99.90
11736;DHT22;5924;51.398;7.088;2023-04-24T19:00:16;7.80;99.90
11736;DHT22;5924;51.398;7.088;2023-04-24T19:02:43;8.10;99.90
11736;DHT22;5924;51.398;7.088;2023-04-24T19:05:08;7.70;99.90
11736;DHT22;5924;51.398;7.088;2023-04-24T19:07:36;8.10;99.90
11736;DHT22;5924;51.398;7.088;2023-04-24T19:10:01;7.70;99.90
11736;DHT22;5924;51.398;7.088;2023-04-24T19:12:27;9.30;99.90
11736;DHT22;5924;51.398;7.088;2023-04-24T19:14:53;7.70;99.90
11736;DHT22;5924;51.398;7.088;2023-04-24T19:17:20;7.70;99.90
11736;DHT22;5924;51.398;7.088;2023-04-24T19:19:49;7.60;99.90
11736;DHT22;5924;51.398;7.088;2023-04-24T19:22:15;7.50;99.90
11736;DHT22;5924;51.398;7.088;2023-04-24T19:24:41;7.40;99.90
11736;DHT22;5924;51.398;7.088;2023-04-24T19:27:07;7.30;99.90
11736;DHT22;5924;51.398;7.088;2023-04-24T19:29:32;7.20;99.90
11736;DHT22;5924;51.398;7.088;2023-04-24T19:31:58;7.10;99.90
11736;DHT22;5924;51.398;7.088;2023-04-24T19:34:24;7.10;99.90
11736;DHT22;5924;51.398;7.088;2023-04-24T19:36:50;7.10;99.90
11736;DHT22;5924;51.398;7.088;2023-04-24T19:39:16;7.00;99.90
11736;DHT22;5924;51.398;7.088;2023-04-24T19:41:41;6.90;99.90
11736;DHT22;5924;51.398;7.088;2023-04-24T19:44:07;6.90;99.90
11736;DHT22;5924;51.398;7.088;2023-04-24T19:46:33;6.80;99.90
11736;DHT22;5924;51.398;7.088;2023-04-24T19:48:58;6.80;99.90
11736;DHT22;5924;51.398;7.088;2023-04-24T19:51:24;6.70;99.90
11736;DHT22;5924;51.398;7.088;2023-04-24T19:53:50;6.70;99.90
11736;DHT22;5924;51.398;7.088;2023-04-24T19:56:16;6.70;99.90
11736;DHT22;5924;51.398;7.088;2023-04-24T19:58:41;6.70;99.90
11736;DHT22;5924;51.398;7.088;2023-04-24T20:01:07;6.80;99.90
11736;DHT22;5924;51.398;7.088;2023-04-24T20:03:33;5.90;99.90
11736;DHT22;5924;51.398;7.088;2023-04-24T20:05:58;6.90;99.90
11736;DHT22;5924;51.398;7.088;2023-04-24T20:08:24;6.90;99.90
11736;DHT22;5924;51.398;7.088;2023-04-24T20:10:50;6.80;99.90
11736;DHT22;5924;51.398;7.088;2023-04-24T20:13:16;6.70;99.90
11736;DHT22;5924;51.398;7.088;2023-04-24T20:15:42;6.70;99.90
11736;DHT22;5924;51.398;7.088;2023-04-24T20:18:07;6.60;99.90
11736;DHT22;5924;51.398;7.088;2023-04-24T20:20:33;6.60;99.90
11736;DHT22;5924;51.398;7.088;2023-04-24T20:23:03;6.50;99.90
11736;DHT22;5924;51.398;7.088;2023-04-24T20:25:29;6.50;99.90
11736;DHT22;5924;51.398;7.088;2023-04-24T20:27:55;6.40;99.90
11736;DHT22;5924;51.398;7.088;2023-04-24T20:30:20;6.40;99.90
11736;DHT22;5924;51.398;7.088;2023-04-24T20:32:46;6.30;99.90
11736;DHT22;5924;51.398;7.088;2023-04-24T20:35:12;6.30;99.90
11736;DHT22;5924;51.398;7.088;2023-04-24T20:37:38;6.20;99.90
11736;DHT22;5924;51.398;7.088;2023-04-24T20:40:04;6.10;99.90
11736;DHT22;5924;51.398;7.088;2023-04-24T20:42:31;6.10;99.90
11736;DHT22;5924;51.398;7.088;2023-04-24T20:45:00;6.00;99.90
11736;DHT22;5924;51.398;7.088;2023-04-24T20:47:26;6.00;99.90
11736;DHT22;5924;51.398;7.088;2023-04-24T20:49:52;5.90;99.90
11736;DHT22;5924;51.398;7.088;2023-04-24T20:52:18;5.80;99.90
11736;DHT22;5924;51.398;7.088;2023-04-24T20:58:06;5.70;99.90
11736;DHT22;5924;51.398;7.088;2023-04-24T21:00:32;5.70;99.90
11736;DHT22;5924;51.398;7.088;2023-04-24T21:02:58;5.60;99.90
11736;DHT22;5924;51.398;7.088;2023-04-24T21:05:24;5.50;99.90
11736;DHT22;5924;51.398;7.088;2023-04-24T21:07:50;7.40;99.90
11736;DHT22;5924;51.398;7.088;2023-04-24T21:10:23;5.40;99.90
11736;DHT22;5924;51.398;7.088;2023-04-24T21:12:49;5.30;99.90
11736;DHT22;5924;51.398;7.088;2023-04-24T21:15:15;5.20;99.90
11736;DHT22;5924;51.398;7.088;2023-04-24T21:17:41;5.10;99.90
11736;DHT22;5924;51.398;7.088;2023-04-24T21:20:08;5.10;99.90
11736;DHT22;5924;51.398;7.088;2023-04-24T21:22:33;5.00;99.90
11736;DHT22;5924;51.398;7.088;2023-04-24T21:25:03;5.00;99.90
11736;DHT22;5924;51.398;7.088;2023-04-24T21:27:29;4.90;99.90
11736;DHT22;5924;51.398;7.088;2023-04-24T21:29:55;4.90;99.90
11736;DHT22;5924;51.398;7.088;2023-04-24T21:32:20;4.90;99.90
11736;DHT22;5924;51.398;7.088;2023-04-24T21:34:46;4.90;99.90
11736;DHT22;5924;51.398;7.088;2023-04-24T21:37:12;4.80;99.90
11736;DHT22;5924;51.398;7.088;2023-04-24T21:39:40;4.90;99.90